Etusivu
METAR-TAF:

METAR-TAF

Lentoasemat :

Bordeaux, Ranska

Leveyspiiri: 44-50N, Pituuspiiri: 000-42W, korkeus merenpinnasta: 49 m

Tämänhetkinen sää

Tämä raportti tehtiin 47 minuuttia sitten, kello 19.00 UTC
Tuuli 7 kn koillisesta
Lämpötila 28°C
Kosteus 30%
Ilmanpaine 1020 hPa
Näkyvyys 10 km tai enemmän
ei pilviä alle 1500 m:ssä eikä cumulonimbus-pilviä

METAR: LFBD 281900Z AUTO 05007KT CAVOK 28/09 Q1020 NOSIG

Aika: 21:47 (19:47 UTC)

Sääennuste

Tämä raportti tehtiin 2 tuntia ja 47 minuuttia sitten, kello 17.00 UTC
Ennuste voimassa 28. päivästä klo 18 UTC - 29. päivään klo 24 UTC
Tuuli 10 kn koillisesta
Näkyvyys 10 km tai enemmän
ei pilviä alle 1500 m:ssä eikä cumulonimbus-pilviä

TAF: LFBD 281700Z 2818/2924 05010KT CAVOK TX31/2915Z TN16/2905Z

Säähavainnot ja -ennusteet yli 4000 lentoasemalta (METAR- ja TAF-raportit).

Käytössä olevat sääasemat on merkitty karttaan keltaisilla ja punaisilla pisteillä.

Aseta hiiri pisteen päälle nähdäksesi sääaseman nimen.

Klikkaa sitten nähdäksesi säähavainnot ja -ennusteet.

Kartan vaihtaminen: klikkaa mustalla rastilla varustettuja vihreitä pisteitä, niin voit zoomata sisään; viivalla varustettua vihreää pistettä, niin voit zoomata ulos tai vihreitä nuolia, niin pääset viereisille kartoille.


METAR-TAF: